Tarifa en Andalucia

latitud = 36° 01' 08''N | longitud = 005° 35' 58''W
56 metros sobre el nivel del mar | datos mensuales

Fecha, hora, temperatura, viento dirección y velocidad, humedad y presión.

  • 16-08-2018 02:00:00 | 20.30°C | Noroeste |11.00 km/h | 69.00% | 0.00 hPa
  • 16-08-2018 01:00:00 | 20.20°C | Noroeste |10.00 km/h | 70.00% | 0.00 hPa
  • 16-08-2018 00:00:00 | 20.10°C | Noroeste |10.00 km/h | 70.00% | 0.00 hPa
  • 15-08-2018 23:00:00 | 20.30°C | Oeste |13.00 km/h | 71.00% | 0.00 hPa
  • 15-08-2018 22:00:00 | 20.30°C | Oeste |13.00 km/h | 70.00% | 0.00 hPa
  • 15-08-2018 21:00:00 | 20.70°C | Oeste |14.00 km/h | 69.00% | 0.00 hPa
  • 15-08-2018 20:00:00 | 21.60°C | Oeste |14.00 km/h | 61.00% | 0.00 hPa
  • 15-08-2018 19:00:00 | 22.70°C | Oeste |13.00 km/h | 57.00% | 0.00 hPa
  • 15-08-2018 18:00:00 | 22.70°C | Oeste |15.00 km/h | 56.00% | 0.00 hPa
  • 15-08-2018 17:00:00 | 22.70°C | Oeste |15.00 km/h | 54.00% | 0.00 hPa
  • 15-08-2018 16:00:00 | 22.90°C | Oeste |13.00 km/h | 53.00% | 0.00 hPa
  • 15-08-2018 15:00:00 | 23.10°C | Oeste |15.00 km/h | 53.00% | 0.00 hPa
  • 15-08-2018 14:00:00 | 22.50°C | Oeste |16.00 km/h | 57.00% | 0.00 hPa
  • 15-08-2018 13:00:00 | 21.70°C | Oeste |17.00 km/h | 59.00% | 0.00 hPa
  • 15-08-2018 12:00:00 | 21.90°C | Oeste |12.00 km/h | 57.00% | 0.00 hPa
  • 15-08-2018 11:00:00 | 21.30°C | Oeste |12.00 km/h | 60.00% | 0.00 hPa
  • 15-08-2018 10:00:00 | 20.90°C | Oeste |9.00 km/h | 65.00% | 0.00 hPa
  • 15-08-2018 09:00:00 | 20.30°C | Oeste |6.00 km/h | 68.00% | 0.00 hPa
  • 15-08-2018 08:00:00 | 19.30°C | Noroeste |7.00 km/h | 77.00% | 0.00 hPa
  • 15-08-2018 07:00:00 | 19.40°C | Oeste |6.00 km/h | 78.00% | 0.00 hPa
  • 15-08-2018 06:00:00 | 19.60°C | Oeste |8.00 km/h | 77.00% | 0.00 hPa
  • 15-08-2018 05:00:00 | 19.40°C | Noroeste |8.00 km/h | 78.00% | 0.00 hPa
  • 15-08-2018 04:00:00 | 19.10°C | Noroeste |10.00 km/h | 81.00% | 0.00 hPa
  • 15-08-2018 03:00:00 | 19.20°C | Noroeste |10.00 km/h | 80.00% | 0.00 hPa